createdAt,value
2017-11-20T00:00:25.558Z,89.25
2017-11-20T00:05:26.351Z,89.09
2017-11-20T00:10:27.139Z,88.76
2017-11-20T00:15:27.950Z,88.56
2017-11-20T00:31:47.345Z,87.73
2017-11-20T00:36:48.166Z,87.66
2017-11-20T00:41:48.955Z,87.16
2017-11-20T00:46:49.759Z,86.64
2017-11-20T00:51:50.555Z,86.37
2017-11-20T00:56:51.339Z,86.47
2017-11-20T01:07:27.983Z,86.44
2017-11-20T01:12:28.782Z,86.73
2017-11-20T01:17:29.601Z,86.40
2017-11-20T01:22:30.398Z,86.45
2017-11-20T01:27:31.179Z,86.11
2017-11-20T01:32:32.003Z,85.76
2017-11-20T01:37:32.795Z,86.64
2017-11-20T01:42:33.590Z,85.02
2017-11-20T01:47:34.363Z,85.68
2017-11-20T01:52:35.730Z,85.33
2017-11-20T01:57:36.523Z,85.04
2017-11-20T02:02:49.594Z,84.35
2017-11-20T02:07:50.407Z,84.43
2017-11-20T02:12:51.187Z,83.71
2017-11-20T02:17:51.979Z,83.59
2017-11-20T02:22:52.787Z,83.79
2017-11-20T02:27:53.581Z,83.05
2017-11-20T02:32:54.366Z,83.41
2017-11-20T02:37:55.155Z,83.49
2017-11-20T02:42:55.944Z,83.98
2017-11-20T02:47:56.721Z,83.65
2017-11-20T02:52:57.535Z,83.67
2017-11-20T02:57:58.360Z,83.83
2017-11-20T03:02:59.141Z,83.50
2017-11-20T03:07:59.927Z,83.15
2017-11-20T03:13:00.727Z,83.06
2017-11-20T03:18:01.515Z,83.29
2017-11-20T03:23:02.332Z,83.64
2017-11-20T03:28:03.115Z,83.65
2017-11-20T03:33:03.912Z,83.48
2017-11-20T03:38:04.739Z,83.47
2017-11-20T03:43:05.530Z,83.82
2017-11-20T03:48:06.347Z,83.54
2017-11-20T03:53:07.140Z,83.29
2017-11-20T03:58:07.951Z,83.86
2017-11-20T04:08:37.127Z,83.85
2017-11-20T04:13:37.914Z,83.47
2017-11-20T04:18:38.701Z,83.99
2017-11-20T04:23:39.479Z,84.30
2017-11-20T04:28:40.260Z,85.78
2017-11-20T04:33:41.067Z,87.45
2017-11-20T04:38:41.848Z,88.52
2017-11-20T04:43:42.637Z,88.95
2017-11-20T04:48:43.455Z,89.20
2017-11-20T04:53:44.278Z,89.54
2017-11-20T04:58:45.055Z,89.35
2017-11-20T05:03:45.833Z,88.83
2017-11-20T05:08:46.639Z,88.76
2017-11-20T05:14:03.039Z,89.93
2017-11-20T05:19:03.839Z,89.38
2017-11-20T05:24:04.635Z,88.09
2017-11-20T05:29:05.445Z,87.97
2017-11-20T05:34:06.290Z,87.28
2017-11-20T05:39:07.111Z,87.38
2017-11-20T05:44:07.911Z,87.29
2017-11-20T05:49:08.722Z,86.54
2017-11-20T05:54:09.527Z,86.69
2017-11-20T05:59:10.315Z,86.53
2017-11-20T06:04:11.115Z,87.74
2017-11-20T06:09:11.895Z,86.14
2017-11-20T06:14:12.980Z,86.38
2017-11-20T06:19:34.874Z,86.47
2017-11-20T06:24:35.679Z,86.73
2017-11-20T06:29:36.445Z,86.62
2017-11-20T06:34:37.243Z,85.62
2017-11-20T06:39:38.011Z,85.86
2017-11-20T06:44:38.810Z,86.05
2017-11-20T06:49:39.604Z,85.55
2017-11-20T06:54:40.382Z,85.66
2017-11-20T06:59:41.176Z,86.46
2017-11-20T07:04:41.962Z,85.63
2017-11-20T07:09:42.754Z,85.69
2017-11-20T07:20:20.372Z,85.40
2017-11-20T07:25:33.590Z,86.13
2017-11-20T07:30:46.609Z,85.84
2017-11-20T07:35:59.869Z,85.20
2017-11-20T07:52:07.527Z,84.21
2017-11-20T07:57:08.351Z,84.54
2017-11-20T08:02:09.127Z,84.81
2017-11-20T08:07:09.914Z,83.23
2017-11-20T08:12:14.316Z,83.67
2017-11-20T08:55:29.867Z,79.60
2017-11-20T09:00:55.572Z,79.33
2017-11-20T09:05:56.367Z,77.50
2017-11-20T09:11:18.531Z,77.63
2017-11-20T09:16:19.329Z,75.66
2017-11-20T09:21:20.116Z,75.61
2017-11-20T09:26:20.919Z,75.50
2017-11-20T09:31:21.709Z,75.88
2017-11-20T09:36:23.064Z,74.97
2017-11-20T09:41:23.879Z,74.46
2017-11-20T10:02:48.151Z,73.23
2017-11-20T10:07:49.079Z,72.31
2017-11-20T10:12:49.853Z,71.57
2017-11-20T10:17:50.644Z,71.67
2017-11-20T10:22:51.446Z,71.24
2017-11-20T10:28:00.782Z,71.82
2017-11-20T10:33:01.591Z,72.63
2017-11-20T10:38:02.398Z,71.48
2017-11-20T10:43:03.178Z,71.25
2017-11-20T10:48:03.967Z,72.21
2017-11-20T10:53:04.745Z,70.90
2017-11-20T10:58:05.545Z,69.05
2017-11-20T11:03:06.327Z,70.34
2017-11-20T11:08:07.127Z,70.32
2017-11-20T11:13:07.919Z,69.28
2017-11-20T11:18:08.707Z,68.16
2017-11-20T11:23:09.497Z,70.39
2017-11-20T11:28:10.295Z,70.27
2017-11-20T11:33:11.072Z,69.41
2017-11-20T11:38:11.896Z,69.90
2017-11-20T11:43:12.704Z,69.44
2017-11-20T11:48:13.531Z,69.19
2017-11-20T11:53:14.344Z,70.12
2017-11-20T11:58:15.152Z,69.52
2017-11-20T12:03:15.947Z,68.66
2017-11-20T12:08:16.760Z,67.36
2017-11-20T12:13:17.592Z,68.47
2017-11-20T12:18:18.467Z,71.64
2017-11-20T12:23:19.294Z,74.15
2017-11-20T12:28:20.085Z,73.59
2017-11-20T12:33:20.859Z,72.60
2017-11-20T12:38:21.696Z,73.75
2017-11-20T12:43:22.494Z,70.92
2017-11-20T12:48:23.272Z,72.25
2017-11-20T12:53:24.083Z,75.03
2017-11-20T12:58:24.852Z,80.38
2017-11-20T13:03:25.647Z,81.57
2017-11-20T13:08:26.452Z,82.09
2017-11-20T13:13:27.230Z,81.56
2017-11-20T13:18:28.067Z,81.51
2017-11-20T13:23:28.944Z,80.46
2017-11-20T13:28:29.805Z,80.67
2017-11-20T13:33:30.675Z,80.70
2017-11-20T13:38:31.494Z,81.62
2017-11-20T13:43:32.295Z,82.47
2017-11-20T13:48:33.099Z,80.46
2017-11-20T13:53:33.927Z,82.28
2017-11-20T13:58:34.763Z,81.86
2017-11-20T14:03:35.602Z,82.46
2017-11-20T14:08:36.420Z,83.21
2017-11-20T14:13:37.228Z,80.63
2017-11-20T14:18:38.031Z,82.46
2017-11-20T14:23:39.412Z,81.72
2017-11-20T14:28:40.251Z,82.24
2017-11-20T14:33:41.052Z,82.36
2017-11-20T14:38:41.902Z,82.98
2017-11-20T14:43:42.753Z,82.14
2017-11-20T14:48:43.576Z,83.60
2017-11-20T14:53:44.399Z,85.17
2017-11-20T14:58:45.225Z,85.24
2017-11-20T15:03:46.086Z,86.54
2017-11-20T15:08:46.888Z,87.31
2017-11-20T15:13:47.744Z,88.21
2017-11-20T15:18:48.551Z,89.02
2017-11-20T15:23:49.343Z,89.36
2017-11-20T15:28:50.168Z,89.75
2017-11-20T15:33:50.992Z,89.99
2017-11-20T15:38:52.627Z,90.45
2017-11-20T15:43:53.412Z,90.11
2017-11-20T15:48:54.190Z,90.27
2017-11-20T15:54:12.300Z,90.44
2017-11-20T15:59:13.098Z,89.93
2017-11-20T16:04:13.871Z,90.81
2017-11-20T16:09:14.688Z,90.67
2017-11-20T16:14:15.487Z,91.01
2017-11-20T16:19:16.281Z,91.20
2017-11-20T16:24:23.616Z,91.14
2017-11-20T16:29:24.424Z,91.23
2017-11-20T16:34:25.189Z,91.37
2017-11-20T16:39:25.979Z,91.22
2017-11-20T16:44:26.745Z,91.22
2017-11-20T16:49:27.527Z,91.04
2017-11-20T16:54:28.311Z,90.99
2017-11-20T16:59:29.991Z,91.52
2017-11-20T17:04:30.785Z,91.13
2017-11-20T17:09:31.711Z,91.31
2017-11-20T17:14:32.498Z,91.21
2017-11-20T17:19:34.341Z,91.31
2017-11-20T17:24:35.110Z,91.03
2017-11-20T17:29:35.914Z,91.26
2017-11-20T17:34:36.683Z,91.50
2017-11-20T17:39:37.470Z,91.73
2017-11-20T17:44:38.256Z,91.53
2017-11-20T17:49:39.044Z,92.05
2017-11-20T17:54:39.798Z,92.10
2017-11-20T17:59:40.588Z,92.05
2017-11-20T18:04:41.382Z,92.09
2017-11-20T18:09:42.168Z,92.09
2017-11-20T18:14:42.999Z,92.22
2017-11-20T18:19:43.810Z,92.15
2017-11-20T18:24:44.599Z,92.15
2017-11-20T18:29:45.380Z,91.93
2017-11-20T18:34:46.159Z,91.92
2017-11-20T18:39:46.991Z,91.82
2017-11-20T18:44:47.782Z,92.02
2017-11-20T18:49:48.596Z,91.81
2017-11-20T18:54:49.431Z,91.81
2017-11-20T19:00:07.535Z,91.88
2017-11-20T19:05:20.715Z,91.70
2017-11-20T19:10:21.564Z,91.85
2017-11-20T19:15:22.350Z,91.43
2017-11-20T19:20:23.152Z,92.37
2017-11-20T19:25:24.391Z,92.09
2017-11-20T19:30:25.178Z,92.38
2017-11-20T19:35:25.963Z,92.49
2017-11-20T19:40:26.778Z,92.77
2017-11-20T19:45:27.542Z,92.58
2017-11-20T19:50:28.362Z,92.75
2017-11-20T19:55:29.135Z,93.05
2017-11-20T20:00:29.932Z,93.07
2017-11-20T20:05:30.788Z,93.43
2017-11-20T20:10:31.563Z,93.35
2017-11-20T20:15:44.676Z,93.25
2017-11-20T20:20:45.476Z,93.21
2017-11-20T20:25:46.259Z,93.08
2017-11-20T20:30:47.034Z,92.76
2017-11-20T20:35:47.825Z,92.99
2017-11-20T20:40:48.693Z,92.57
2017-11-20T20:45:49.470Z,92.36
2017-11-20T20:50:50.306Z,93.12
2017-11-20T20:55:51.158Z,92.18
2017-11-20T21:00:52.000Z,92.25
2017-11-20T21:05:52.811Z,92.51
2017-11-20T21:10:59.726Z,92.78
2017-11-20T21:16:00.607Z,92.56
2017-11-20T21:21:01.406Z,92.66
2017-11-20T21:26:02.255Z,92.51
2017-11-20T21:31:03.034Z,92.46
2017-11-20T21:36:03.824Z,92.47
2017-11-20T21:41:04.755Z,92.23
2017-11-20T21:46:05.615Z,92.24
2017-11-20T21:51:06.390Z,92.48
2017-11-20T21:56:07.179Z,92.48
2017-11-20T22:01:07.979Z,92.22
2017-11-20T22:06:08.756Z,92.30
2017-11-20T22:11:10.147Z,92.27
2017-11-20T22:16:15.643Z,92.24
2017-11-20T22:21:16.417Z,92.74
2017-11-20T22:26:17.212Z,92.53
2017-11-20T22:47:50.225Z,92.83
2017-11-20T22:52:51.011Z,92.74
2017-11-20T22:58:09.643Z,92.92
2017-11-20T23:03:20.736Z,92.93
2017-11-20T23:08:31.782Z,92.93
2017-11-20T23:13:38.964Z,93.12
2017-11-20T23:18:39.754Z,93.17
2017-11-20T23:23:40.570Z,93.28
2017-11-20T23:28:41.331Z,93.30
2017-11-20T23:33:42.140Z,93.17
2017-11-20T23:38:42.930Z,93.20
2017-11-20T23:43:43.733Z,93.08
2017-11-20T23:48:57.995Z,93.29
2017-11-20T23:53:58.811Z,93.27
2017-11-20T23:58:59.603Z,93.79
